sensor_id;sensor_type;location;lat;lon;timestamp;pressure;altitude;pressure_sealevel;temperature;humidity
5814;BME280;2933;52.302;8.134;2023-04-02T00:03:03;100090.38;;;3.10;100.00
5814;BME280;2933;52.302;8.134;2023-04-02T00:08:18;100093.31;;;3.25;100.00
5814;BME280;2933;52.302;8.134;2023-04-02T00:13:27;100107.31;;;2.94;100.00
5814;BME280;2933;52.302;8.134;2023-04-02T00:18:31;100115.53;;;3.05;100.00
5814;BME280;2933;52.302;8.134;2023-04-02T00:23:37;100124.59;;;2.91;100.00
5814;BME280;2933;52.302;8.134;2023-04-02T00:28:39;100130.78;;;2.86;100.00
5814;BME280;2933;52.302;8.134;2023-04-02T00:33:41;100139.13;;;2.69;100.00
5814;BME280;2933;52.302;8.134;2023-04-02T00:38:45;100139.69;;;2.77;100.00
5814;BME280;2933;52.302;8.134;2023-04-02T00:43:47;100139.88;;;2.72;100.00
5814;BME280;2933;52.302;8.134;2023-04-02T00:48:53;100141.06;;;2.62;100.00
5814;BME280;2933;52.302;8.134;2023-04-02T00:54:01;100154.47;;;2.72;100.00
5814;BME280;2933;52.302;8.134;2023-04-02T00:59:04;100138.94;;;2.48;100.00
5814;BME280;2933;52.302;8.134;2023-04-02T01:04:27;100179.34;;;2.74;100.00
5814;BME280;2933;52.302;8.134;2023-04-02T01:09:49;100198.00;;;2.56;100.00
5814;BME280;2933;52.302;8.134;2023-04-02T01:15:02;100211.25;;;2.45;100.00
5814;BME280;2933;52.302;8.134;2023-04-02T01:20:28;100217.06;;;2.23;100.00
5814;BME280;2933;52.302;8.134;2023-04-02T01:25:41;100217.09;;;2.22;100.00
5814;BME280;2933;52.302;8.134;2023-04-02T01:30:48;100195.66;;;1.91;100.00
5814;BME280;2933;52.302;8.134;2023-04-02T01:35:56;100250.69;;;1.89;100.00
5814;BME280;2933;52.302;8.134;2023-04-02T01:41:07;100257.25;;;2.01;100.00
5814;BME280;2933;52.302;8.134;2023-04-02T01:46:24;100271.19;;;1.93;100.00
5814;BME280;2933;52.302;8.134;2023-04-02T01:51:31;100269.66;;;1.86;100.00
5814;BME280;2933;52.302;8.134;2023-04-02T01:56:34;100263.16;;;1.74;100.00
5814;BME280;2933;52.302;8.134;2023-04-02T02:01:41;100304.31;;;1.76;100.00
5814;BME280;2933;52.302;8.134;2023-04-02T02:06:45;100281.13;;;1.76;100.00
5814;BME280;2933;52.302;8.134;2023-04-02T02:11:47;100305.88;;;1.82;100.00
5814;BME280;2933;52.302;8.134;2023-04-02T02:16:52;100322.16;;;1.82;100.00
5814;BME280;2933;52.302;8.134;2023-04-02T02:21:57;100331.81;;;1.74;100.00
5814;BME280;2933;52.302;8.134;2023-04-02T02:27:27;100333.69;;;1.69;100.00
5814;BME280;2933;52.302;8.134;2023-04-02T02:32:44;100346.66;;;1.66;100.00
5814;BME280;2933;52.302;8.134;2023-04-02T02:37:51;100323.34;;;1.37;100.00
5814;BME280;2933;52.302;8.134;2023-04-02T02:42:59;100333.84;;;1.29;100.00
5814;BME280;2933;52.302;8.134;2023-04-02T02:48:07;100329.41;;;1.35;100.00
5814;BME280;2933;52.302;8.134;2023-04-02T02:53:16;100399.09;;;1.61;100.00
5814;BME280;2933;52.302;8.134;2023-04-02T02:58:22;100368.22;;;1.25;100.00
5814;BME280;2933;52.302;8.134;2023-04-02T03:03:29;100385.38;;;1.26;100.00
5814;BME280;2933;52.302;8.134;2023-04-02T03:08:35;100402.28;;;1.37;100.00
5814;BME280;2933;52.302;8.134;2023-04-02T03:13:42;100412.28;;;1.49;100.00
5814;BME280;2933;52.302;8.134;2023-04-02T03:18:51;100421.75;;;1.49;100.00
5814;BME280;2933;52.302;8.134;2023-04-02T03:23:56;100404.41;;;1.19;100.00
5814;BME280;2933;52.302;8.134;2023-04-02T03:29:02;100432.41;;;1.33;100.00
5814;BME280;2933;52.302;8.134;2023-04-02T03:34:12;100456.78;;;1.18;100.00
5814;BME280;2933;52.302;8.134;2023-04-02T03:39:19;100471.41;;;1.16;100.00
5814;BME280;2933;52.302;8.134;2023-04-02T03:44:27;100484.19;;;1.19;100.00
5814;BME280;2933;52.302;8.134;2023-04-02T03:49:35;100482.69;;;1.09;100.00
5814;BME280;2933;52.302;8.134;2023-04-02T03:54:39;100506.81;;;1.05;100.00
5814;BME280;2933;52.302;8.134;2023-04-02T03:59:46;100515.19;;;1.13;100.00
5814;BME280;2933;52.302;8.134;2023-04-02T04:04:50;100519.97;;;0.89;100.00
5814;BME280;2933;52.302;8.134;2023-04-02T04:09:54;100519.97;;;0.89;100.00
5814;BME280;2933;52.302;8.134;2023-04-02T04:15:00;100538.00;;;0.88;100.00
5814;BME280;2933;52.302;8.134;2023-04-02T04:20:14;100552.59;;;0.87;100.00
5814;BME280;2933;52.302;8.134;2023-04-02T04:25:24;100556.97;;;0.84;100.00
5814;BME280;2933;52.302;8.134;2023-04-02T04:30:32;100572.44;;;0.80;100.00
5814;BME280;2933;52.302;8.134;2023-04-02T04:35:48;100577.47;;;0.87;100.00
5814;BME280;2933;52.302;8.134;2023-04-02T04:40:53;100590.03;;;1.02;100.00
5814;BME280;2933;52.302;8.134;2023-04-02T04:45:59;100584.47;;;0.80;100.00
5814;BME280;2933;52.302;8.134;2023-04-02T04:51:07;100607.47;;;0.88;100.00
5814;BME280;2933;52.302;8.134;2023-04-02T04:56:10;100599.66;;;0.92;100.00
5814;BME280;2933;52.302;8.134;2023-04-02T05:01:16;100628.88;;;0.90;100.00
5814;BME280;2933;52.302;8.134;2023-04-02T05:06:24;100640.16;;;0.81;100.00
5814;BME280;2933;52.302;8.134;2023-04-02T05:11:36;100644.56;;;0.76;100.00
5814;BME280;2933;52.302;8.134;2023-04-02T05:16:41;100651.44;;;0.74;100.00
5814;BME280;2933;52.302;8.134;2023-04-02T05:21:52;100662.38;;;0.85;100.00
5814;BME280;2933;52.302;8.134;2023-04-02T05:26:59;100693.81;;;1.01;100.00
5814;BME280;2933;52.302;8.134;2023-04-02T05:32:07;100654.88;;;0.73;100.00
5814;BME280;2933;52.302;8.134;2023-04-02T05:37:17;100717.81;;;1.03;100.00
5814;BME280;2933;52.302;8.134;2023-04-02T05:42:22;100718.91;;;0.88;100.00
5814;BME280;2933;52.302;8.134;2023-04-02T05:47:26;100736.91;;;0.88;100.00
5814;BME280;2933;52.302;8.134;2023-04-02T05:52:36;100743.63;;;0.97;100.00
5814;BME280;2933;52.302;8.134;2023-04-02T05:57:46;100706.41;;;0.67;100.00
5814;BME280;2933;52.302;8.134;2023-04-02T06:02:55;100765.09;;;0.94;100.00
5814;BME280;2933;52.302;8.134;2023-04-02T06:08:04;100787.13;;;1.09;100.00
5814;BME280;2933;52.302;8.134;2023-04-02T06:13:07;100798.13;;;1.19;100.00
5814;BME280;2933;52.302;8.134;2023-04-02T06:18:15;100758.47;;;0.79;100.00
5814;BME280;2933;52.302;8.134;2023-04-02T06:23:22;100813.56;;;1.21;100.00
5814;BME280;2933;52.302;8.134;2023-04-02T06:28:27;100790.78;;;0.98;100.00
5814;BME280;2933;52.302;8.134;2023-04-02T06:33:31;100834.91;;;1.27;100.00
5814;BME280;2933;52.302;8.134;2023-04-02T06:38:35;100846.09;;;1.25;100.00
5814;BME280;2933;52.302;8.134;2023-04-02T06:43:40;100846.31;;;1.11;100.00
5814;BME280;2933;52.302;8.134;2023-04-02T06:48:45;100830.97;;;1.05;100.00
5814;BME280;2933;52.302;8.134;2023-04-02T06:53:49;100838.63;;;1.08;100.00
5814;BME280;2933;52.302;8.134;2023-04-02T06:58:51;100890.56;;;1.35;100.00
5814;BME280;2933;52.302;8.134;2023-04-02T07:03:53;100894.25;;;1.17;100.00
5814;BME280;2933;52.302;8.134;2023-04-02T07:08:56;100902.81;;;1.19;100.00
5814;BME280;2933;52.302;8.134;2023-04-02T07:13:58;100872.25;;;0.99;100.00
5814;BME280;2933;52.302;8.134;2023-04-02T07:18:59;100924.81;;;1.37;100.00
5814;BME280;2933;52.302;8.134;2023-04-02T07:24:05;100942.59;;;1.54;100.00
5814;BME280;2933;52.302;8.134;2023-04-02T07:29:12;100954.66;;;1.50;100.00
5814;BME280;2933;52.302;8.134;2023-04-02T07:34:17;100949.69;;;1.38;100.00
5814;BME280;2933;52.302;8.134;2023-04-02T07:39:22;100955.75;;;1.35;100.00
5814;BME280;2933;52.302;8.134;2023-04-02T07:44:25;100980.78;;;1.82;100.00
5814;BME280;2933;52.302;8.134;2023-04-02T07:49:27;100981.34;;;1.46;100.00
5814;BME280;2933;52.302;8.134;2023-04-02T07:54:30;101003.50;;;1.56;100.00
5814;BME280;2933;52.302;8.134;2023-04-02T07:59:32;100961.75;;;1.36;100.00
5814;BME280;2933;52.302;8.134;2023-04-02T08:04:33;101023.00;;;1.73;100.00
5814;BME280;2933;52.302;8.134;2023-04-02T08:09:36;101007.47;;;1.77;100.00
5814;BME280;2933;52.302;8.134;2023-04-02T08:14:38;101034.41;;;1.58;100.00
5814;BME280;2933;52.302;8.134;2023-04-02T08:19:40;101062.41;;;1.80;100.00
5814;BME280;2933;52.302;8.134;2023-04-02T08:24:43;101061.59;;;1.76;100.00
5814;BME280;2933;52.302;8.134;2023-04-02T08:29:44;101038.31;;;1.82;100.00
5814;BME280;2933;52.302;8.134;2023-04-02T08:34:46;101078.78;;;2.29;100.00
5814;BME280;2933;52.302;8.134;2023-04-02T08:39:49;101085.97;;;2.09;98.86
5814;BME280;2933;52.302;8.134;2023-04-02T08:44:59;101057.09;;;1.90;99.56
5814;BME280;2933;52.302;8.134;2023-04-02T08:50:13;101081.78;;;2.55;99.96
5814;BME280;2933;52.302;8.134;2023-04-02T08:55:20;101114.91;;;2.77;99.46
5814;BME280;2933;52.302;8.134;2023-04-02T09:00:34;101121.41;;;2.51;97.16
5814;BME280;2933;52.302;8.134;2023-04-02T09:05:40;101119.63;;;2.55;97.04
5814;BME280;2933;52.302;8.134;2023-04-02T09:10:50;101099.19;;;2.91;97.31
5814;BME280;2933;52.302;8.134;2023-04-02T09:15:55;101091.38;;;2.94;95.58
5814;BME280;2933;52.302;8.134;2023-04-02T09:20:59;101125.69;;;3.42;96.78
5814;BME280;2933;52.302;8.134;2023-04-02T09:26:19;101156.31;;;3.60;93.40
5814;BME280;2933;52.302;8.134;2023-04-02T09:31:25;101158.06;;;3.99;94.25
5814;BME280;2933;52.302;8.134;2023-04-02T09:36:33;101135.19;;;3.41;92.60
5814;BME280;2933;52.302;8.134;2023-04-02T09:41:36;101175.16;;;3.65;94.39
5814;BME280;2933;52.302;8.134;2023-04-02T09:46:50;101169.44;;;3.49;92.88
5814;BME280;2933;52.302;8.134;2023-04-02T09:52:18;101199.56;;;3.50;91.88
5814;BME280;2933;52.302;8.134;2023-04-02T09:57:23;101201.06;;;3.62;90.64
5814;BME280;2933;52.302;8.134;2023-04-02T10:02:28;101201.56;;;3.80;91.41
5814;BME280;2933;52.302;8.134;2023-04-02T10:07:32;101202.91;;;3.57;90.31
5814;BME280;2933;52.302;8.134;2023-04-02T10:12:39;101199.41;;;3.60;90.99
5814;BME280;2933;52.302;8.134;2023-04-02T10:17:44;101232.75;;;3.70;89.02
5814;BME280;2933;52.302;8.134;2023-04-02T10:22:51;101232.63;;;3.77;89.98
5814;BME280;2933;52.302;8.134;2023-04-02T10:28:06;101234.03;;;3.93;89.02
5814;BME280;2933;52.302;8.134;2023-04-02T10:33:14;101246.13;;;3.91;89.21
5814;BME280;2933;52.302;8.134;2023-04-02T10:38:32;101267.47;;;3.59;88.37
5814;BME280;2933;52.302;8.134;2023-04-02T10:43:52;101280.59;;;3.46;87.62
5814;BME280;2933;52.302;8.134;2023-04-02T10:49:05;101289.81;;;4.03;88.61
5814;BME280;2933;52.302;8.134;2023-04-02T10:54:31;101284.66;;;4.03;88.12
5814;BME280;2933;52.302;8.134;2023-04-02T11:17:47;101324.75;;;5.69;80.76
5814;BME280;2933;52.302;8.134;2023-04-02T11:23:04;101324.28;;;5.86;79.96
5814;BME280;2933;52.302;8.134;2023-04-02T11:28:17;101337.53;;;6.38;79.65
5814;BME280;2933;52.302;8.134;2023-04-02T11:33:37;101328.53;;;5.89;77.05
5814;BME280;2933;52.302;8.134;2023-04-02T11:38:49;101330.63;;;5.43;79.83
5814;BME280;2933;52.302;8.134;2023-04-02T11:43:59;101329.28;;;5.28;81.75
5814;BME280;2933;52.302;8.134;2023-04-02T11:54:36;101339.72;;;5.25;80.92
5814;BME280;2933;52.302;8.134;2023-04-02T11:59:44;101360.88;;;5.41;80.50
5814;BME280;2933;52.302;8.134;2023-04-02T12:05:18;101367.41;;;5.57;79.88
5814;BME280;2933;52.302;8.134;2023-04-02T12:10:27;101373.09;;;5.37;79.48
5814;BME280;2933;52.302;8.134;2023-04-02T12:15:40;101376.34;;;5.45;75.64
5814;BME280;2933;52.302;8.134;2023-04-02T12:20:48;101375.88;;;5.95;76.07
5814;BME280;2933;52.302;8.134;2023-04-02T12:25:57;101398.34;;;6.29;73.74
5814;BME280;2933;52.302;8.134;2023-04-02T12:31:03;101397.47;;;6.60;73.44
5814;BME280;2933;52.302;8.134;2023-04-02T12:36:17;101396.94;;;6.47;71.65
5814;BME280;2933;52.302;8.134;2023-04-02T12:41:22;101406.19;;;6.58;71.43
5814;BME280;2933;52.302;8.134;2023-04-02T12:46:26;101393.09;;;6.61;72.05
5814;BME280;2933;52.302;8.134;2023-04-02T12:51:28;101408.50;;;7.24;72.99
5814;BME280;2933;52.302;8.134;2023-04-02T12:56:31;101404.16;;;7.24;70.40
5814;BME280;2933;52.302;8.134;2023-04-02T13:01:33;101394.72;;;7.49;72.35
5814;BME280;2933;52.302;8.134;2023-04-02T13:06:35;101399.16;;;7.96;71.95
5814;BME280;2933;52.302;8.134;2023-04-02T13:11:39;101413.53;;;7.55;69.99
5814;BME280;2933;52.302;8.134;2023-04-02T13:16:41;101413.69;;;7.51;69.46
5814;BME280;2933;52.302;8.134;2023-04-02T13:21:43;101412.31;;;6.85;71.32
5814;BME280;2933;52.302;8.134;2023-04-02T13:26:47;101413.19;;;6.84;74.27
5814;BME280;2933;52.302;8.134;2023-04-02T13:31:49;101404.06;;;7.27;71.70
5814;BME280;2933;52.302;8.134;2023-04-02T13:36:51;101413.47;;;7.03;69.78
5814;BME280;2933;52.302;8.134;2023-04-02T13:41:56;101416.16;;;7.28;70.66
5814;BME280;2933;52.302;8.134;2023-04-02T13:46:58;101416.97;;;7.02;69.46
5814;BME280;2933;52.302;8.134;2023-04-02T13:52:01;101409.81;;;7.37;70.32
5814;BME280;2933;52.302;8.134;2023-04-02T13:57:05;101405.72;;;7.82;70.03
5814;BME280;2933;52.302;8.134;2023-04-02T14:02:09;101408.03;;;7.90;69.62
5814;BME280;2933;52.302;8.134;2023-04-02T14:07:35;101405.03;;;7.77;68.66
5814;BME280;2933;52.302;8.134;2023-04-02T14:12:53;101411.53;;;7.89;67.13
5814;BME280;2933;52.302;8.134;2023-04-02T14:18:15;101415.53;;;8.23;68.97
5814;BME280;2933;52.302;8.134;2023-04-02T14:23:35;101430.13;;;8.03;67.10
5814;BME280;2933;52.302;8.134;2023-04-02T14:28:53;101422.13;;;8.08;66.34
5814;BME280;2933;52.302;8.134;2023-04-02T14:34:03;101421.03;;;8.15;65.34
5814;BME280;2933;52.302;8.134;2023-04-02T14:39:13;101421.16;;;8.12;65.88
5814;BME280;2933;52.302;8.134;2023-04-02T14:44:22;101425.09;;;7.99;64.86
5814;BME280;2933;52.302;8.134;2023-04-02T14:49:28;101420.03;;;7.94;64.29
5814;BME280;2933;52.302;8.134;2023-04-02T14:54:34;101420.63;;;8.51;64.71
5814;BME280;2933;52.302;8.134;2023-04-02T14:59:47;101435.53;;;8.22;63.03
5814;BME280;2933;52.302;8.134;2023-04-02T15:04:56;101433.06;;;8.19;63.16
5814;BME280;2933;52.302;8.134;2023-04-02T15:10:05;101435.19;;;8.57;65.10
5814;BME280;2933;52.302;8.134;2023-04-02T15:15:18;101443.31;;;8.48;65.32
5814;BME280;2933;52.302;8.134;2023-04-02T15:20:20;101449.75;;;8.85;65.16
5814;BME280;2933;52.302;8.134;2023-04-02T15:25:28;101451.03;;;8.51;64.53
5814;BME280;2933;52.302;8.134;2023-04-02T15:30:36;101453.69;;;8.24;65.29
5814;BME280;2933;52.302;8.134;2023-04-02T15:35:43;101461.16;;;8.09;64.40
5814;BME280;2933;52.302;8.134;2023-04-02T15:40:52;101463.75;;;8.09;64.35
5814;BME280;2933;52.302;8.134;2023-04-02T15:46:08;101472.91;;;8.45;64.14
5814;BME280;2933;52.302;8.134;2023-04-02T15:51:19;101474.63;;;7.96;64.31
5814;BME280;2933;52.302;8.134;2023-04-02T15:56:33;101490.34;;;7.66;64.92
5814;BME280;2933;52.302;8.134;2023-04-02T16:01:49;101491.06;;;7.71;65.74
5814;BME280;2933;52.302;8.134;2023-04-02T16:07:14;101496.97;;;7.76;64.87
5814;BME280;2933;52.302;8.134;2023-04-02T16:12:20;101501.66;;;7.91;62.65
5814;BME280;2933;52.302;8.134;2023-04-02T16:17:29;101500.00;;;7.89;62.74
5814;BME280;2933;52.302;8.134;2023-04-02T16:22:33;101505.16;;;7.64;62.14
5814;BME280;2933;52.302;8.134;2023-04-02T16:27:39;101513.75;;;7.66;63.97
5814;BME280;2933;52.302;8.134;2023-04-02T16:32:53;101522.41;;;7.66;64.90
5814;BME280;2933;52.302;8.134;2023-04-02T16:38:05;101529.88;;;7.77;63.53
5814;BME280;2933;52.302;8.134;2023-04-02T16:43:18;101530.50;;;7.57;63.50
5814;BME280;2933;52.302;8.134;2023-04-02T16:48:33;101532.50;;;7.49;64.10
5814;BME280;2933;52.302;8.134;2023-04-02T16:53:44;101538.50;;;7.51;64.45
5814;BME280;2933;52.302;8.134;2023-04-02T16:58:54;101538.72;;;7.71;64.75
5814;BME280;2933;52.302;8.134;2023-04-02T17:04:15;101557.25;;;7.89;65.00
5814;BME280;2933;52.302;8.134;2023-04-02T17:09:27;101561.88;;;7.52;64.99
5814;BME280;2933;52.302;8.134;2023-04-02T17:14:37;101559.00;;;7.32;65.46
5814;BME280;2933;52.302;8.134;2023-04-02T17:19:43;101576.56;;;7.25;66.08
5814;BME280;2933;52.302;8.134;2023-04-02T17:24:48;101584.94;;;7.03;66.76
5814;BME280;2933;52.302;8.134;2023-04-02T17:29:54;101578.16;;;6.99;68.29
5814;BME280;2933;52.302;8.134;2023-04-02T17:35:17;101590.25;;;7.00;69.09
5814;BME280;2933;52.302;8.134;2023-04-02T17:40:24;101599.91;;;6.95;68.34
5814;BME280;2933;52.302;8.134;2023-04-02T17:45:35;101606.06;;;6.91;69.92
5814;BME280;2933;52.302;8.134;2023-04-02T17:51:00;101610.47;;;6.89;71.16
5814;BME280;2933;52.302;8.134;2023-04-02T17:56:18;101627.75;;;6.90;72.57
5814;BME280;2933;52.302;8.134;2023-04-02T18:01:27;101626.75;;;6.95;76.19
5814;BME280;2933;52.302;8.134;2023-04-02T18:06:37;101631.16;;;6.92;76.78
5814;BME280;2933;52.302;8.134;2023-04-02T18:11:47;101635.28;;;6.68;78.53
5814;BME280;2933;52.302;8.134;2023-04-02T18:16:55;101640.13;;;6.47;77.40
5814;BME280;2933;52.302;8.134;2023-04-02T18:22:07;101651.19;;;6.54;81.65
5814;BME280;2933;52.302;8.134;2023-04-02T18:27:23;101654.00;;;6.46;79.62
5814;BME280;2933;52.302;8.134;2023-04-02T18:38:10;101669.91;;;6.32;78.71
5814;BME280;2933;52.302;8.134;2023-04-02T18:43:25;101671.03;;;6.22;79.27
5814;BME280;2933;52.302;8.134;2023-04-02T18:48:40;101674.69;;;6.13;80.01
5814;BME280;2933;52.302;8.134;2023-04-02T18:53:44;101685.94;;;6.12;81.69
5814;BME280;2933;52.302;8.134;2023-04-02T18:58:51;101694.66;;;6.09;81.55
5814;BME280;2933;52.302;8.134;2023-04-02T19:03:59;101706.72;;;6.12;83.50
5814;BME280;2933;52.302;8.134;2023-04-02T19:09:09;101706.81;;;6.07;86.42
5814;BME280;2933;52.302;8.134;2023-04-02T19:14:14;101713.06;;;5.97;84.24
5814;BME280;2933;52.302;8.134;2023-04-02T19:19:19;101729.41;;;6.02;85.21
5814;BME280;2933;52.302;8.134;2023-04-02T19:24:32;101735.78;;;5.86;85.61
5814;BME280;2933;52.302;8.134;2023-04-02T19:29:44;101743.56;;;5.84;86.70
5814;BME280;2933;52.302;8.134;2023-04-02T19:34:56;101748.78;;;5.82;83.54
5814;BME280;2933;52.302;8.134;2023-04-02T19:40:17;101755.03;;;5.74;83.50
5814;BME280;2933;52.302;8.134;2023-04-02T19:45:32;101750.88;;;5.65;83.53
5814;BME280;2933;52.302;8.134;2023-04-02T19:50:37;101765.69;;;5.60;83.74
5814;BME280;2933;52.302;8.134;2023-04-02T19:55:41;101772.88;;;5.44;81.85
5814;BME280;2933;52.302;8.134;2023-04-02T20:00:43;101779.03;;;5.40;84.43
5814;BME280;2933;52.302;8.134;2023-04-02T20:05:44;101786.16;;;5.28;84.98
5814;BME280;2933;52.302;8.134;2023-04-02T20:10:47;101784.66;;;5.13;85.23
5814;BME280;2933;52.302;8.134;2023-04-02T20:15:49;101793.16;;;5.22;86.26
5814;BME280;2933;52.302;8.134;2023-04-02T20:20:51;101796.94;;;5.02;86.85
5814;BME280;2933;52.302;8.134;2023-04-02T20:25:55;101808.16;;;5.03;89.71
5814;BME280;2933;52.302;8.134;2023-04-02T20:31:05;101806.53;;;4.95;89.94
5814;BME280;2933;52.302;8.134;2023-04-02T20:36:09;101813.84;;;4.70;90.18
5814;BME280;2933;52.302;8.134;2023-04-02T20:41:12;101824.28;;;4.62;91.03
5814;BME280;2933;52.302;8.134;2023-04-02T20:46:15;101832.97;;;4.60;92.61
5814;BME280;2933;52.302;8.134;2023-04-02T20:51:17;101841.59;;;4.60;93.55
5814;BME280;2933;52.302;8.134;2023-04-02T20:56:20;101839.41;;;4.31;93.15
5814;BME280;2933;52.302;8.134;2023-04-02T21:01:24;101848.06;;;4.28;94.68
5814;BME280;2933;52.302;8.134;2023-04-02T21:06:28;101852.47;;;4.20;94.72
5814;BME280;2933;52.302;8.134;2023-04-02T21:11:32;101857.72;;;4.12;97.18
5814;BME280;2933;52.302;8.134;2023-04-02T21:16:34;101859.53;;;4.04;97.52
5814;BME280;2933;52.302;8.134;2023-04-02T21:21:37;101869.03;;;4.03;97.49
5814;BME280;2933;52.302;8.134;2023-04-02T21:26:40;101876.03;;;3.97;99.13
5814;BME280;2933;52.302;8.134;2023-04-02T21:31:42;101883.03;;;3.85;100.00
5814;BME280;2933;52.302;8.134;2023-04-02T21:36:45;101878.81;;;3.75;100.00
5814;BME280;2933;52.302;8.134;2023-04-02T21:41:50;101898.59;;;3.78;100.00
5814;BME280;2933;52.302;8.134;2023-04-02T21:46:52;101905.56;;;3.72;100.00
5814;BME280;2933;52.302;8.134;2023-04-02T21:51:53;101891.00;;;3.62;100.00
5814;BME280;2933;52.302;8.134;2023-04-02T21:56:56;101901.50;;;3.45;100.00
5814;BME280;2933;52.302;8.134;2023-04-02T22:01:58;101912.66;;;3.49;100.00
5814;BME280;2933;52.302;8.134;2023-04-02T22:07:00;101920.41;;;3.52;100.00
5814;BME280;2933;52.302;8.134;2023-04-02T22:12:03;101920.56;;;3.30;100.00
5814;BME280;2933;52.302;8.134;2023-04-02T22:17:07;101921.53;;;3.11;100.00
5814;BME280;2933;52.302;8.134;2023-04-02T22:22:08;101926.69;;;3.15;100.00
5814;BME280;2933;52.302;8.134;2023-04-02T22:27:11;101931.94;;;3.06;100.00
5814;BME280;2933;52.302;8.134;2023-04-02T22:32:13;101932.81;;;2.96;100.00
5814;BME280;2933;52.302;8.134;2023-04-02T22:37:14;101950.00;;;3.06;100.00
5814;BME280;2933;52.302;8.134;2023-04-02T22:42:17;101965.53;;;3.00;100.00
5814;BME280;2933;52.302;8.134;2023-04-02T22:47:20;101965.53;;;2.95;100.00
5814;BME280;2933;52.302;8.134;2023-04-02T22:52:22;101971.56;;;2.94;100.00
5814;BME280;2933;52.302;8.134;2023-04-02T22:57:24;101974.22;;;2.80;100.00
5814;BME280;2933;52.302;8.134;2023-04-02T23:02:26;101989.69;;;2.80;100.00
5814;BME280;2933;52.302;8.134;2023-04-02T23:07:27;101988.00;;;2.76;100.00
5814;BME280;2933;52.302;8.134;2023-04-02T23:12:31;101988.81;;;2.80;100.00
5814;BME280;2933;52.302;8.134;2023-04-02T23:17:32;101999.25;;;2.63;100.00
5814;BME280;2933;52.302;8.134;2023-04-02T23:22:35;102005.25;;;2.57;100.00
5814;BME280;2933;52.302;8.134;2023-04-02T23:27:38;102008.69;;;2.56;100.00
5814;BME280;2933;52.302;8.134;2023-04-02T23:32:39;102003.53;;;2.56;100.00
5814;BME280;2933;52.302;8.134;2023-04-02T23:37:41;102016.47;;;2.53;100.00
5814;BME280;2933;52.302;8.134;2023-04-02T23:42:44;102017.34;;;2.46;100.00
5814;BME280;2933;52.302;8.134;2023-04-02T23:47:45;102018.25;;;2.34;100.00
5814;BME280;2933;52.302;8.134;2023-04-02T23:52:47;102010.50;;;2.31;100.00
5814;BME280;2933;52.302;8.134;2023-04-02T23:57:50;102016.53;;;2.22;100.00
